No particular awareness of the weather is required.    There are no Weather-warnings

My Other Sites:

Weather34 Aurora MKIIsikeawx.alinos.eu

SYKIA METEOTEMPLATEsykiameteo.alinos.eu

alinos.eualinos.eu



Nearby METAR Reports

   
LGEL - Elefsis (hel-Afb, Greece
Distance from station: E 77 km
Updated: 28-09-2021 03:20
Clear  
Clear  
   Wind: Calm
Wind: Calm
Temperature: 20°C
Dew Point: 11°C
Humidity: 56%
Barometer: 1014 hPa
Visibility: More than 10 km
Cloud details: Clear
LGEL 280020Z 00000KT CAVOK 20/11 Q1014
LGRX - Araxos (civ/Afb), Greece
Distance from station: W 110 km
Updated: 28-09-2021 03:20
Mostly Cloudy  
Mostly Cloudy  
   Wind: Calm
Wind: Calm
Temperature: 18°C
Dew Point: 16°C
Humidity: 88%
Barometer: 1015 hPa
Clouds: Mostly Cloudy
Visibility: More than 10 km
Cloud details: Mostly Cloudy 9000 ft
LGRX 280020Z 00000KT 9999 BKN090 18/16 Q1015
LGAV - Athens/Elef-Ven, Greece
Distance from station: E 113 km
Updated: 28-09-2021 03:20
Clear  
Clear  
   Wind: varies 1.9 km/h
Wind: varies 1.9 km/h
Temperature: 22°C
Dew Point: 11°C
Humidity: 50%
Barometer: 1016 hPa
Visibility: More than 10 km
Cloud details: Clear
LGAV 280020Z VRB01KT CAVOK 22/11 Q1016 NOSIG
LGAD - Andravida (civ/A, Greece
Distance from station: W 124 km
Updated: 28-09-2021 03:20
Partly Cloudy  
Partly Cloudy  
   Wind: Calm
Wind: Calm
Temperature: 18°C
Dew Point: 16°C
Humidity: 88%
Barometer: 1016 hPa
Clouds: Partly Cloudy
Visibility: More than 10 km
Cloud details: Few Clouds 2000 ft,
Partly Cloudy 8000 ft
LGAD 280020Z 00000KT 9999 FEW020 SCT080 18/16 Q1016
LGKL - Kalamata (hel-Af, Greece
Distance from station: SSW 124 km
Updated: 28-09-2021 03:20
  
  
   Wind: varies 5.6 km/h
Wind: varies 5.6 km/h
Temperature: 16°C
Dew Point: 13°C
Humidity: 83%
Barometer: 1015 hPa
LGKL 280020Z AUTO VRB03KT //// // ////// 16/13 Q1015 RE//
LGBL - Nea Anchialos, Greece
Distance from station: N 129 km
Updated: 28-09-2021 03:20
Clear  
Clear  
   Wind: SW 9.3 km/h
Wind: SW 9.3 km/h
Temperature: 16°C
Dew Point: 13°C
Humidity: 83%
Barometer: 1015 hPa
Visibility: More than 10 km
Cloud details: Clear
LGBL 280020Z 23005KT CAVOK 16/13 Q1015

Script developed by  Saratoga-weather.org Adapted for the template by  Weerstation Leuven

You find our weather info also at:

European Weather Network

Weather Underground

AWEKAS

Citizen Weather Observer Program (CWOP)

UK Metoffice

Equipment we use:

Weather-station
Davis Wireless Vantage Pro2

Davis Wireless Vantage Pro2